Time;durP1;ratioP1;P1;durP2;ratioP2;P2;SDS_P1;SDS_P2;PMS_P1;PMS_P2;Temp;Humidity;BMP_temperature;BMP_pressure;BME280_temperature;BME280_humidity;BME280_pressure;Samples;Min_cycle;Max_cycle;Signal;HPM_P1;HPM_P2
2023/11/13 00:00:52;;;;;;;21.67;13.90;;;6.80;99.90;;;;;;5035553;28;20022;-89
2023/11/13 00:03:18;;;;;;;19.63;13.20;;;6.80;99.90;;;;;;5045414;28;20025;-88
2023/11/13 00:05:44;;;;;;;21.63;14.35;;;6.80;99.90;;;;;;5036627;28;20460;-89
2023/11/13 00:08:10;;;;;;;20.67;13.45;;;6.90;99.90;;;;;;5052874;28;20052;-89
2023/11/13 00:10:37;;;;;;;22.15;15.02;;;6.90;99.90;;;;;;5034522;28;20406;-89
2023/11/13 00:13:03;;;;;;;20.23;13.75;;;6.90;99.90;;;;;;5041930;28;20413;-87
2023/11/13 00:15:29;;;;;;;25.55;14.90;;;6.90;99.90;;;;;;5037206;28;20033;-90
2023/11/13 00:17:54;;;;;;;21.02;12.93;;;6.90;99.90;;;;;;5044977;28;20075;-90
2023/11/13 00:20:20;;;;;;;22.73;14.35;;;6.80;99.90;;;;;;5036269;28;20025;-88
2023/11/13 00:22:46;;;;;;;24.08;13.70;;;6.90;99.90;;;;;;5036647;28;20452;-90
2023/11/13 00:25:12;;;;;;;23.33;14.23;;;6.90;99.90;;;;;;5037394;28;20025;-90
2023/11/13 00:27:38;;;;;;;25.13;15.07;;;6.90;99.90;;;;;;5043020;28;20438;-88
2023/11/13 00:30:06;;;;;;;22.50;13.25;;;6.90;99.90;;;;;;5037571;28;20674;-89
2023/11/13 00:32:32;;;;;;;21.42;14.73;;;7.00;99.90;;;;;;5036813;28;20034;-89
2023/11/13 00:34:57;;;;;;;20.88;13.35;;;7.00;99.90;;;;;;5053550;28;20036;-89
2023/11/13 00:37:23;;;;;;;20.80;12.65;;;6.90;99.90;;;;;;5044009;28;20022;-91
2023/11/13 00:39:49;;;;;;;21.08;13.82;;;7.10;99.90;;;;;;5035199;28;20036;-90
2023/11/13 00:42:15;;;;;;;21.75;13.77;;;7.10;99.90;;;;;;5036351;28;20119;-90
2023/11/13 00:44:41;;;;;;;23.58;12.23;;;7.10;99.90;;;;;;5035284;28;20025;-90
2023/11/13 00:47:07;;;;;;;24.52;13.30;;;7.10;99.90;;;;;;5035844;28;20025;-92
2023/11/13 00:49:33;;;;;;;26.88;15.25;;;7.10;99.90;;;;;;5036017;28;20091;-91
2023/11/13 00:51:59;;;;;;;22.80;12.98;;;7.10;99.90;;;;;;5036758;28;20028;-91
2023/11/13 00:54:24;;;;;;;24.10;13.63;;;7.10;99.90;;;;;;5047775;28;20017;-90
2023/11/13 00:56:53;;;;;;;21.88;13.35;;;7.20;99.90;;;;;;5048037;28;20406;-90
2023/11/13 00:59:18;;;;;;;20.38;12.63;;;7.20;99.90;;;;;;5036219;28;20053;-90
2023/11/13 01:01:44;;;;;;;21.33;12.65;;;7.20;99.90;;;;;;5035254;28;20018;-90
2023/11/13 01:04:10;;;;;;;22.95;14.20;;;7.20;99.90;;;;;;5044088;28;20021;-91
2023/11/13 01:06:35;;;;;;;19.85;11.50;;;7.30;99.90;;;;;;5042790;28;20435;-90
2023/11/13 01:09:02;;;;;;;22.67;13.18;;;7.20;99.90;;;;;;5041715;28;20028;-89
2023/11/13 01:11:28;;;;;;;22.75;14.00;;;7.30;99.90;;;;;;5040207;28;20021;-90
2023/11/13 01:13:54;;;;;;;20.08;12.23;;;7.30;99.90;;;;;;5038259;28;20029;-90
2023/11/13 01:16:20;;;;;;;17.38;11.50;;;7.30;99.90;;;;;;5038399;28;20098;-92
2023/11/13 01:18:53;;;;;;;19.17;11.60;;;7.30;99.90;;;;;;5046061;28;20038;-90
2023/11/13 01:21:19;;;;;;;17.88;11.38;;;7.30;99.90;;;;;;5031577;28;20101;-89
2023/11/13 01:23:45;;;;;;;22.50;11.85;;;7.30;99.90;;;;;;5048092;28;20021;-89
2023/11/13 01:26:11;;;;;;;20.70;12.10;;;7.30;99.90;;;;;;5039820;28;20108;-90
2023/11/13 01:28:36;;;;;;;17.73;12.27;;;7.40;99.90;;;;;;5047159;28;20044;-90
2023/11/13 01:31:02;;;;;;;15.98;9.73;;;7.30;99.90;;;;;;5048667;28;20025;-88
2023/11/13 01:33:28;;;;;;;18.88;10.80;;;7.40;99.90;;;;;;5043868;28;20045;-90
2023/11/13 01:35:53;;;;;;;18.52;11.60;;;7.30;99.90;;;;;;5045959;28;20029;-89
2023/11/13 01:38:19;;;;;;;20.02;13.15;;;7.40;99.90;;;;;;5038698;28;20033;-90
2023/11/13 01:40:46;;;;;;;20.45;11.73;;;7.30;99.90;;;;;;5038679;28;20476;-91
2023/11/13 01:43:19;;;;;;;21.08;12.85;;;7.30;99.90;;;;;;5025777;28;20056;-91
2023/11/13 01:45:45;;;;;;;17.35;10.93;;;7.40;99.90;;;;;;5038719;28;20022;-90
2023/11/13 01:48:14;;;;;;;18.08;10.25;;;7.30;99.90;;;;;;5037293;28;20044;-90
2023/11/13 01:50:40;;;;;;;19.50;11.57;;;7.40;99.90;;;;;;5038733;28;20021;-91
2023/11/13 01:53:07;;;;;;;20.00;13.05;;;7.30;99.90;;;;;;5039698;28;20029;-90
2023/11/13 01:55:33;;;;;;;20.15;12.20;;;7.40;99.90;;;;;;5043937;28;20039;-90
2023/11/13 01:57:59;;;;;;;18.75;11.02;;;7.30;99.90;;;;;;5041380;28;20474;-90
2023/11/13 02:00:25;;;;;;;20.35;11.35;;;7.40;99.90;;;;;;5052166;28;20510;-89
2023/11/13 02:02:53;;;;;;;18.50;11.13;;;7.40;99.90;;;;;;5037149;28;20038;-89
2023/11/13 02:05:19;;;;;;;17.92;10.95;;;7.40;99.90;;;;;;5034994;28;20017;-88
2023/11/13 02:07:46;;;;;;;17.52;10.38;;;7.40;99.90;;;;;;5039486;28;20513;-89
2023/11/13 02:10:13;;;;;;;16.75;10.63;;;7.40;99.90;;;;;;5038104;28;20026;-89
2023/11/13 02:12:39;;;;;;;16.13;9.80;;;7.50;99.90;;;;;;5044367;28;20487;-89
2023/11/13 02:15:07;;;;;;;16.92;10.70;;;7.40;99.90;;;;;;5040635;28;20036;-90
2023/11/13 02:17:33;;;;;;;18.48;10.88;;;7.40;99.90;;;;;;5043415;28;20078;-89
2023/11/13 02:19:58;;;;;;;15.25;10.18;;;7.50;99.90;;;;;;5039480;28;20029;-88
2023/11/13 02:22:24;;;;;;;16.80;9.63;;;7.50;99.90;;;;;;5036863;28;20025;-90
2023/11/13 02:24:51;;;;;;;17.85;10.07;;;7.50;99.90;;;;;;5055182;28;20036;-89
2023/11/13 02:27:19;;;;;;;17.00;11.73;;;7.50;99.90;;;;;;5044348;28;20032;-88
2023/11/13 02:29:45;;;;;;;15.15;10.40;;;7.60;99.90;;;;;;5037679;28;20572;-88
2023/11/13 02:32:11;;;;;;;17.65;10.82;;;7.60;99.90;;;;;;5037755;28;20108;-89
2023/11/13 02:34:37;;;;;;;17.17;10.93;;;7.60;99.90;;;;;;5044297;28;20021;-89
2023/11/13 02:37:03;;;;;;;18.73;9.70;;;7.60;99.90;;;;;;5047575;28;20490;-90
2023/11/13 02:39:28;;;;;;;20.67;11.13;;;7.60;99.90;;;;;;5036464;28;20117;-89
2023/11/13 02:41:55;;;;;;;18.98;10.43;;;7.60;99.90;;;;;;5045551;28;20642;-90
2023/11/13 02:44:21;;;;;;;21.25;11.40;;;7.60;99.90;;;;;;5046464;28;20030;-89
2023/11/13 02:46:47;;;;;;;18.42;10.38;;;7.60;99.90;;;;;;5046532;28;20546;-89
2023/11/13 02:49:13;;;;;;;15.98;9.43;;;7.60;99.90;;;;;;5040139;28;20040;-90
2023/11/13 02:51:40;;;;;;;17.70;10.35;;;7.70;99.90;;;;;;5044244;28;20040;-90
2023/11/13 02:54:06;;;;;;;17.55;9.60;;;7.70;99.90;;;;;;5046756;28;20403;-89
2023/11/13 02:56:31;;;;;;;18.08;9.98;;;7.90;99.90;;;;;;5036627;28;20028;-89
2023/11/13 02:58:57;;;;;;;16.48;10.48;;;7.90;99.90;;;;;;5030092;28;20053;-90
2023/11/13 03:01:23;;;;;;;14.93;7.97;;;7.90;99.90;;;;;;5049335;28;20088;-89
2023/11/13 03:03:48;;;;;;;14.40;8.10;;;8.30;99.90;;;;;;5036791;28;20240;-89
2023/11/13 03:06:14;;;;;;;6.40;3.70;;;8.50;99.90;;;;;;5049733;28;20028;-88
2023/11/13 03:08:45;;;;;;;5.93;3.08;;;9.10;99.90;;;;;;5043228;28;20071;-91
2023/11/13 03:11:13;;;;;;;5.88;2.78;;;9.60;99.90;;;;;;5047812;28;20025;-89
2023/11/13 03:13:40;;;;;;;3.60;2.28;;;10.10;99.90;;;;;;5050733;28;20028;-89
2023/11/13 03:16:09;;;;;;;3.75;1.90;;;10.30;99.90;;;;;;5039584;28;20045;-88
2023/11/13 03:18:35;;;;;;;3.92;2.15;;;10.40;99.90;;;;;;5037595;28;20059;-88
2023/11/13 03:21:02;;;;;;;4.88;2.17;;;10.50;99.90;;;;;;5036697;28;20419;-89
2023/11/13 03:23:28;;;;;;;4.70;1.80;;;10.50;99.90;;;;;;5036049;28;20033;-90
2023/11/13 03:25:54;;;;;;;5.38;1.95;;;10.60;99.90;;;;;;5044884;28;20403;-89
2023/11/13 03:28:20;;;;;;;4.30;2.53;;;10.60;99.90;;;;;;5044922;28;20104;-90
2023/11/13 03:30:45;;;;;;;3.22;2.00;;;10.60;99.90;;;;;;5035715;28;20502;-88
2023/11/13 03:33:11;;;;;;;4.47;1.92;;;10.70;99.90;;;;;;5053757;28;20025;-91
2023/11/13 03:35:37;;;;;;;3.17;1.67;;;10.70;99.90;;;;;;5037464;28;20072;-90
2023/11/13 03:38:02;;;;;;;2.83;1.52;;;10.70;99.90;;;;;;5046507;28;20029;-90
2023/11/13 03:40:28;;;;;;;3.17;2.17;;;10.80;99.90;;;;;;5043647;28;20048;-89
2023/11/13 03:42:56;;;;;;;4.45;2.50;;;10.80;99.90;;;;;;5044327;28;20029;-90
2023/11/13 03:45:22;;;;;;;3.28;1.88;;;10.80;99.90;;;;;;5048584;28;20096;-90
2023/11/13 03:47:49;;;;;;;7.03;2.08;;;10.80;99.90;;;;;;5046410;28;20072;-90
2023/11/13 03:50:14;;;;;;;4.78;1.88;;;10.80;99.90;;;;;;5044442;28;20071;-91
2023/11/13 03:52:40;;;;;;;3.85;1.42;;;10.80;99.90;;;;;;5036852;28;20503;-90
2023/11/13 03:55:06;;;;;;;2.67;1.63;;;10.80;99.90;;;;;;5030198;28;20092;-89
2023/11/13 03:57:32;;;;;;;5.25;1.83;;;10.80;99.90;;;;;;5033794;28;20021;-89
2023/11/13 03:59:57;;;;;;;5.85;2.45;;;10.90;99.90;;;;;;5039372;28;20034;-90
2023/11/13 04:02:23;;;;;;;7.05;2.75;;;10.90;99.90;;;;;;5045480;28;20461;-88
2023/11/13 04:04:52;;;;;;;14.45;2.38;;;10.90;99.90;;;;;;5036490;28;20064;-91
2023/11/13 04:07:20;;;;;;;7.93;1.40;;;10.90;99.90;;;;;;5036515;28;20022;-90
2023/11/13 04:09:46;;;;;;;8.85;2.25;;;11.00;99.90;;;;;;5036271;28;20021;-89
2023/11/13 04:12:12;;;;;;;6.07;1.75;;;10.90;99.90;;;;;;5037200;28;20079;-89
2023/11/13 04:14:37;;;;;;;3.47;2.22;;;10.90;99.90;;;;;;5045313;28;20088;-89
2023/11/13 04:17:05;;;;;;;5.57;2.25;;;11.00;99.90;;;;;;5045813;28;20025;-89
2023/11/13 04:19:33;;;;;;;9.35;1.83;;;11.00;99.90;;;;;;5037154;28;20105;-89
2023/11/13 04:21:59;;;;;;;3.67;1.40;;;11.00;99.90;;;;;;5039720;28;20025;-89
2023/11/13 04:24:25;;;;;;;6.78;2.97;;;11.00;99.90;;;;;;5037477;28;20443;-89
2023/11/13 04:26:50;;;;;;;2.22;1.20;;;11.00;99.90;;;;;;5038341;28;20029;-90
2023/11/13 04:29:16;;;;;;;5.90;1.83;;;10.90;99.90;;;;;;5044769;28;20048;-88
2023/11/13 04:31:42;;;;;;;5.47;1.65;;;11.00;99.90;;;;;;5036109;28;20021;-89
2023/11/13 04:34:07;;;;;;;7.97;1.67;;;10.90;99.90;;;;;;5046293;28;20025;-89
2023/11/13 04:36:33;;;;;;;6.93;2.00;;;11.00;99.90;;;;;;5057606;28;20105;-89
2023/11/13 04:38:59;;;;;;;8.00;2.10;;;10.90;99.90;;;;;;5049244;28;20025;-89
2023/11/13 04:41:26;;;;;;;4.50;2.05;;;10.90;99.90;;;;;;5047956;28;20025;-91
2023/11/13 04:43:52;;;;;;;7.75;2.22;;;10.90;99.90;;;;;;5040155;28;20129;-90
2023/11/13 04:46:19;;;;;;;7.85;2.15;;;11.00;99.90;;;;;;5049641;28;20056;-90
2023/11/13 04:48:45;;;;;;;5.85;2.35;;;11.00;99.90;;;;;;5037679;28;20029;-89
2023/11/13 04:51:11;;;;;;;6.03;1.83;;;11.00;99.90;;;;;;5039920;28;20033;-91
2023/11/13 04:53:36;;;;;;;9.25;2.15;;;11.00;99.90;;;;;;5052941;28;20400;-91
2023/11/13 04:56:02;;;;;;;6.57;1.83;;;11.00;99.90;;;;;;5044452;28;20033;-91
2023/11/13 04:58:28;;;;;;;4.97;2.45;;;11.00;99.90;;;;;;5049736;28;20040;-91
2023/11/13 05:00:54;;;;;;;8.57;2.33;;;11.10;99.90;;;;;;5046150;28;20033;-90
2023/11/13 05:03:19;;;;;;;10.70;2.58;;;11.00;99.90;;;;;;5037428;28;20026;-88
2023/11/13 05:05:45;;;;;;;10.20;2.33;;;11.00;99.90;;;;;;5037427;28;20053;-89
2023/11/13 05:08:14;;;;;;;9.52;2.38;;;11.00;99.90;;;;;;5050838;28;20104;-90
2023/11/13 05:10:39;;;;;;;6.03;2.15;;;11.00;99.90;;;;;;5056161;28;20021;-91
2023/11/13 05:13:05;;;;;;;7.00;2.33;;;11.00;99.90;;;;;;5055778;28;20028;-90
2023/11/13 05:15:31;;;;;;;12.13;2.88;;;11.10;99.90;;;;;;5044450;28;20028;-90
2023/11/13 05:17:59;;;;;;;8.90;2.67;;;11.00;99.90;;;;;;5046549;28;20030;-90
2023/11/13 05:20:25;;;;;;;9.10;2.50;;;11.10;99.90;;;;;;5047060;28;20063;-91
2023/11/13 05:22:51;;;;;;;7.97;2.40;;;11.00;99.90;;;;;;5040038;28;20022;-90
2023/11/13 05:25:16;;;;;;;10.48;2.42;;;11.00;99.90;;;;;;5037752;28;20024;-89
2023/11/13 05:27:42;;;;;;;9.60;4.38;;;11.00;99.90;;;;;;5042461;28;20049;-90
2023/11/13 05:30:08;;;;;;;9.27;2.60;;;11.10;99.90;;;;;;5034655;28;20053;-90
2023/11/13 05:32:34;;;;;;;10.18;4.30;;;11.20;99.90;;;;;;5036903;28;20025;-91
2023/11/13 05:35:01;;;;;;;15.57;3.83;;;11.20;99.90;;;;;;5035392;28;20051;-91
2023/11/13 05:37:27;;;;;;;12.43;3.67;;;11.20;99.90;;;;;;5041608;28;20109;-91
2023/11/13 05:39:53;;;;;;;14.48;3.75;;;11.20;99.90;;;;;;5034618;28;20029;-89
2023/11/13 05:42:23;;;;;;;15.07;4.10;;;11.20;99.90;;;;;;5038789;28;20029;-90
2023/11/13 05:44:48;;;;;;;15.80;3.67;;;11.20;99.90;;;;;;5035801;28;20472;-90
2023/11/13 05:47:14;;;;;;;8.07;2.95;;;11.20;99.90;;;;;;5035317;28;20040;-90
2023/11/13 05:49:40;;;;;;;9.02;3.25;;;11.20;99.90;;;;;;5034742;28;20056;-89
2023/11/13 05:52:06;;;;;;;9.45;2.28;;;11.30;99.90;;;;;;5036577;28;20037;-90
2023/11/13 05:54:31;;;;;;;7.80;2.20;;;11.20;99.90;;;;;;5047131;28;20506;-91
2023/11/13 05:56:57;;;;;;;10.13;3.78;;;11.10;99.90;;;;;;5044116;28;20029;-91
2023/11/13 05:59:22;;;;;;;16.10;3.72;;;11.20;99.90;;;;;;5019877;28;20053;-90
2023/11/13 06:01:51;;;;;;;11.05;2.85;;;11.10;99.90;;;;;;5043219;28;20055;-91
2023/11/13 06:04:17;;;;;;;9.52;2.65;;;11.10;99.90;;;;;;5036461;28;20026;-91
2023/11/13 06:06:45;;;;;;;8.43;2.15;;;11.00;99.90;;;;;;5041370;28;20056;-91
2023/11/13 06:09:11;;;;;;;14.15;3.38;;;11.00;99.90;;;;;;5044207;28;20033;-91
2023/11/13 06:11:38;;;;;;;11.57;3.25;;;11.00;99.90;;;;;;5038906;28;20156;-92
2023/11/13 06:14:06;;;;;;;10.32;2.75;;;11.00;99.90;;;;;;5046082;28;20029;-90
2023/11/13 06:16:33;;;;;;;13.63;4.85;;;10.90;99.90;;;;;;5039048;28;20427;-90
2023/11/13 06:18:59;;;;;;;11.40;3.20;;;10.90;99.90;;;;;;5047271;28;20442;-92
2023/11/13 06:21:25;;;;;;;15.27;4.40;;;10.90;99.90;;;;;;5037563;28;20026;-91
2023/11/13 06:23:50;;;;;;;10.52;4.00;;;10.90;99.90;;;;;;5046637;28;20081;-90
2023/11/13 06:26:16;;;;;;;14.10;3.75;;;10.80;99.90;;;;;;5039794;28;20025;-89
2023/11/13 06:28:42;;;;;;;14.85;3.28;;;10.80;99.90;;;;;;5040093;28;20030;-90
2023/11/13 06:31:11;;;;;;;8.77;3.67;;;10.80;99.90;;;;;;5049097;28;20534;-89
2023/11/13 06:33:37;;;;;;;14.23;3.95;;;10.90;99.90;;;;;;5044478;28;20013;-91
2023/11/13 06:36:09;;;;;;;17.00;4.07;;;10.90;99.90;;;;;;5037383;28;20016;-91
2023/11/13 06:38:36;;;;;;;8.65;3.35;;;10.90;99.90;;;;;;5027288;28;20029;-90
2023/11/13 06:41:03;;;;;;;12.90;4.00;;;10.90;99.90;;;;;;5026300;28;20033;-92
2023/11/13 06:43:32;;;;;;;11.85;4.43;;;10.90;99.90;;;;;;5029955;28;20026;-92
2023/11/13 06:46:03;;;;;;;12.10;4.50;;;10.90;99.90;;;;;;5024990;28;20052;-92
2023/11/13 06:48:29;;;;;;;7.80;4.15;;;10.80;99.90;;;;;;5026642;28;20035;-92
2023/11/13 06:50:55;;;;;;;13.25;4.55;;;10.80;99.90;;;;;;5029438;28;20131;-91
2023/11/13 06:53:21;;;;;;;8.00;2.75;;;10.80;99.90;;;;;;5030939;28;20110;-91
2023/11/13 06:55:47;;;;;;;9.20;4.88;;;10.80;99.90;;;;;;5023596;28;20462;-90
2023/11/13 06:58:14;;;;;;;11.50;4.10;;;10.80;99.90;;;;;;5029780;28;20033;-91
2023/11/13 07:00:39;;;;;;;13.10;2.83;;;10.70;99.90;;;;;;5029908;28;20017;-91
2023/11/13 07:03:05;;;;;;;11.48;2.70;;;10.80;99.90;;;;;;5028412;28;20725;-91
2023/11/13 07:05:34;;;;;;;9.50;3.70;;;10.70;99.90;;;;;;5026577;28;21021;-93
2023/11/13 07:07:59;;;;;;;12.95;3.85;;;10.80;99.90;;;;;;5027949;28;20491;-92
2023/11/13 07:10:33;;;;;;;24.67;3.42;;;10.70;99.90;;;;;;5026808;28;20064;-90
2023/11/13 07:12:59;;;;;;;9.45;4.10;;;10.70;99.90;;;;;;5028463;28;20155;-93
2023/11/13 07:15:24;;;;;;;8.27;3.95;;;10.70;99.90;;;;;;5025658;28;20090;-90
2023/11/13 07:17:50;;;;;;;15.43;3.97;;;10.70;99.90;;;;;;5029593;28;20472;-90
2023/11/13 07:20:18;;;;;;;12.48;3.58;;;10.70;99.90;;;;;;5025158;28;20566;-92
2023/11/13 07:22:50;;;;;;;9.50;4.32;;;10.60;99.90;;;;;;5028244;28;20033;-91
2023/11/13 07:25:16;;;;;;;12.52;3.78;;;10.70;99.90;;;;;;5026073;28;20022;-90
2023/11/13 07:27:43;;;;;;;13.65;3.60;;;10.60;99.90;;;;;;5028535;28;20155;-92
2023/11/13 07:30:09;;;;;;;12.00;2.90;;;10.60;99.90;;;;;;5029839;28;20052;-90
2023/11/13 07:32:34;;;;;;;9.60;3.70;;;10.60;99.90;;;;;;5032376;28;20078;-91
2023/11/13 07:35:00;;;;;;;10.52;3.28;;;10.50;99.90;;;;;;5027055;28;20621;-91
2023/11/13 07:37:25;;;;;;;9.98;3.70;;;10.60;99.90;;;;;;5029318;28;20025;-92
2023/11/13 07:39:51;;;;;;;14.15;3.00;;;10.50;99.90;;;;;;5031923;28;20041;-93
2023/11/13 07:42:21;;;;;;;11.85;2.35;;;10.60;99.90;;;;;;5035953;28;20060;-91
2023/11/13 07:44:49;;;;;;;9.18;2.75;;;10.50;99.90;;;;;;5045043;28;20021;-92
2023/11/13 07:47:16;;;;;;;11.52;3.15;;;10.50;99.90;;;;;;5039577;28;20086;-92
2023/11/13 07:49:43;;;;;;;9.38;3.70;;;10.50;99.90;;;;;;5041228;28;20049;-92
2023/11/13 07:52:13;;;;;;;13.27;3.05;;;10.50;99.90;;;;;;5036821;28;20079;-90
2023/11/13 07:54:42;;;;;;;11.00;3.90;;;10.50;99.90;;;;;;5050982;28;20033;-88
2023/11/13 07:57:09;;;;;;;9.10;4.45;;;10.50;99.90;;;;;;5038664;28;20032;-91
2023/11/13 07:59:39;;;;;;;8.27;3.30;;;10.40;99.90;;;;;;5042854;28;20033;-91
2023/11/13 08:02:09;;;;;;;7.70;3.30;;;10.40;99.90;;;;;;5039159;28;20029;-90
2023/11/13 08:04:35;;;;;;;9.05;3.28;;;10.40;99.90;;;;;;5041684;28;20487;-90
2023/11/13 08:07:00;;;;;;;8.00;3.60;;;10.30;99.90;;;;;;5041568;28;20035;-92
2023/11/13 08:09:26;;;;;;;11.35;3.58;;;10.30;99.90;;;;;;5046249;28;20029;-91
2023/11/13 08:11:51;;;;;;;11.50;4.45;;;10.30;99.90;;;;;;5045174;28;20026;-91
2023/11/13 08:14:17;;;;;;;8.88;3.65;;;10.30;99.90;;;;;;5051384;28;20029;-91
2023/11/13 08:16:43;;;;;;;8.43;3.00;;;10.30;99.90;;;;;;5036760;28;20033;-90
2023/11/13 08:19:09;;;;;;;8.90;4.03;;;10.30;99.90;;;;;;5038934;28;20076;-91
2023/11/13 08:21:35;;;;;;;9.00;3.63;;;10.30;99.90;;;;;;5055132;28;20145;-89
2023/11/13 08:24:01;;;;;;;7.47;3.67;;;10.30;99.90;;;;;;5042539;28;20024;-90
2023/11/13 08:26:32;;;;;;;10.20;3.72;;;10.30;99.90;;;;;;5035978;28;20032;-91
2023/11/13 08:28:58;;;;;;;10.18;3.15;;;10.30;99.90;;;;;;5044823;28;20059;-91
2023/11/13 08:31:26;;;;;;;6.05;3.38;;;10.30;99.90;;;;;;5035498;28;20022;-92
2023/11/13 08:33:55;;;;;;;8.07;3.13;;;10.30;99.90;;;;;;5044621;28;20033;-91
2023/11/13 08:36:26;;;;;;;10.82;3.88;;;10.30;99.90;;;;;;5045315;28;20018;-90
2023/11/13 08:38:53;;;;;;;14.50;4.32;;;10.30;99.90;;;;;;5044758;28;20115;-91
2023/11/13 08:41:19;;;;;;;7.50;3.95;;;10.30;99.90;;;;;;5035786;28;20037;-90
2023/11/13 08:43:45;;;;;;;6.85;3.15;;;10.40;99.90;;;;;;5030677;28;20547;-91
2023/11/13 08:46:12;;;;;;;12.48;3.70;;;10.40;99.90;;;;;;5036884;28;20077;-91
2023/11/13 08:48:37;;;;;;;9.07;3.08;;;10.40;99.90;;;;;;5042017;28;20040;-90
2023/11/13 08:51:07;;;;;;;8.90;2.88;;;10.50;99.90;;;;;;5038601;28;20029;-92
2023/11/13 08:53:42;;;;;;;6.07;2.50;;;10.50;99.90;;;;;;5035892;28;20045;-91
2023/11/13 08:56:15;;;;;;;7.28;2.72;;;10.60;99.90;;;;;;5037631;28;20033;-89
2023/11/13 08:58:42;;;;;;;6.13;2.97;;;10.70;99.90;;;;;;5037255;28;20021;-91
2023/11/13 09:01:07;;;;;;;7.50;2.75;;;10.70;99.90;;;;;;5044592;28;20025;-89
2023/11/13 09:03:37;;;;;;;6.40;3.60;;;10.80;99.90;;;;;;5043693;28;20452;-89
2023/11/13 09:06:08;;;;;;;4.18;2.00;;;10.90;99.90;;;;;;5035890;28;20013;-91
2023/11/13 09:08:36;;;;;;;4.53;2.28;;;11.00;99.90;;;;;;5035800;28;20021;-90
2023/11/13 09:11:04;;;;;;;5.30;2.35;;;11.10;99.90;;;;;;5035733;28;20179;-91
2023/11/13 09:13:29;;;;;;;5.10;2.25;;;11.20;99.90;;;;;;5035477;28;20499;-90
2023/11/13 09:15:55;;;;;;;5.15;2.00;;;11.30;99.90;;;;;;5034209;28;20026;-91
2023/11/13 09:18:26;;;;;;;4.70;1.73;;;11.40;99.90;;;;;;5032514;28;20025;-92
2023/11/13 09:20:54;;;;;;;2.22;1.55;;;11.50;99.90;;;;;;5033890;28;20018;-90
2023/11/13 09:23:21;;;;;;;4.85;1.63;;;11.60;99.90;;;;;;5043038;28;20021;-91
2023/11/13 09:25:46;;;;;;;4.20;2.03;;;11.70;99.90;;;;;;5035343;28;20060;-91
2023/11/13 09:28:12;;;;;;;5.32;1.45;;;11.90;99.90;;;;;;5047800;28;20033;-90
2023/11/13 09:30:39;;;;;;;2.80;1.30;;;12.00;99.90;;;;;;5038684;28;20017;-91
2023/11/13 09:33:10;;;;;;;4.18;1.52;;;12.10;99.90;;;;;;5031456;28;20049;-91
2023/11/13 09:35:36;;;;;;;2.72;1.73;;;12.20;99.90;;;;;;5037256;28;20029;-91
2023/11/13 09:38:02;;;;;;;6.30;1.23;;;12.20;99.90;;;;;;5041225;28;20033;-90
2023/11/13 09:40:35;;;;;;;4.32;1.92;;;12.30;99.90;;;;;;5044406;28;20120;-91
2023/11/13 09:43:18;;;;;;;2.85;2.20;;;12.40;99.90;;;;;;5037556;28;20025;-90
2023/11/13 09:45:46;;;;;;;2.75;1.48;;;12.50;99.90;;;;;;5039645;28;20050;-91
2023/11/13 09:48:28;;;;;;;3.50;1.65;;;12.50;99.90;;;;;;5040490;28;20021;-89
2023/11/13 09:50:57;;;;;;;4.13;1.58;;;12.50;99.90;;;;;;5049750;28;20132;-90
2023/11/13 09:53:25;;;;;;;5.63;1.67;;;12.60;99.90;;;;;;5044856;28;20464;-92
2023/11/13 09:55:52;;;;;;;6.28;1.90;;;12.60;99.90;;;;;;5046434;28;20090;-90
2023/11/13 09:58:18;;;;;;;5.43;2.75;;;12.70;99.90;;;;;;5041930;28;20039;-93
2023/11/13 10:00:45;;;;;;;6.30;2.55;;;12.70;99.90;;;;;;5042231;28;20096;-91
2023/11/13 10:03:14;;;;;;;5.78;1.63;;;12.70;99.90;;;;;;5036514;28;20021;-91
2023/11/13 10:05:42;;;;;;;5.25;1.83;;;12.60;99.90;;;;;;5044886;28;20029;-91
2023/11/13 10:08:08;;;;;;;5.43;1.75;;;12.70;99.90;;;;;;5044072;28;20032;-89
2023/11/13 10:10:34;;;;;;;4.70;1.63;;;12.70;99.90;;;;;;5036848;28;20029;-89
2023/11/13 10:13:04;;;;;;;5.40;2.17;;;12.70;99.90;;;;;;5036762;28;20048;-91
2023/11/13 10:15:31;;;;;;;4.15;1.55;;;12.60;99.90;;;;;;5048727;28;20020;-88
2023/11/13 10:17:59;;;;;;;5.15;2.13;;;12.70;99.90;;;;;;5048635;28;20491;-90
2023/11/13 10:20:25;;;;;;;;;;;12.70;99.90;;;;;;5037453;28;20029;-91
2023/11/13 10:23:04;;;;;;;7.90;2.03;;;12.70;99.90;;;;;;5045801;28;20370;-92
2023/11/13 10:25:45;;;;;;;4.30;1.58;;;12.80;99.90;;;;;;5023910;28;20022;-91
2023/11/13 10:28:13;;;;;;;3.65;2.70;;;12.80;99.90;;;;;;5039269;28;20017;-93
2023/11/13 10:30:51;;;;;;;8.18;2.03;;;12.80;99.90;;;;;;5040077;28;20488;-90
2023/11/13 10:33:16;;;;;;;3.80;2.45;;;12.90;99.90;;;;;;5041546;28;20053;-91
2023/11/13 10:35:45;;;;;;;3.78;1.83;;;12.90;99.90;;;;;;5042354;28;20230;-91
2023/11/13 10:38:14;;;;;;;7.82;2.17;;;13.00;99.90;;;;;;5036670;28;20025;-90
2023/11/13 10:41:03;;;;;;;6.72;2.03;;;13.00;99.90;;;;;;5035547;28;20044;-91
2023/11/13 10:43:33;;;;;;;7.13;2.13;;;13.10;99.90;;;;;;5041139;28;20060;-90
2023/11/13 10:46:00;;;;;;;7.78;2.13;;;13.00;99.90;;;;;;5042247;28;20029;-90
2023/11/13 10:48:31;;;;;;;5.78;2.45;;;13.10;99.90;;;;;;5037670;28;20030;-90
2023/11/13 10:51:04;;;;;;;5.65;2.28;;;13.10;99.90;;;;;;5054370;28;20037;-89
2023/11/13 10:53:35;;;;;;;6.22;2.22;;;13.10;99.90;;;;;;5039658;28;20084;-89
2023/11/13 10:56:02;;;;;;;4.93;2.15;;;13.10;99.90;;;;;;5058881;28;20021;-88
2023/11/13 10:58:28;;;;;;;6.88;2.47;;;13.10;99.90;;;;;;5055174;28;20056;-90
2023/11/13 11:01:05;;;;;;;6.82;2.17;;;13.10;99.90;;;;;;5042004;28;20025;-89
2023/11/13 11:03:32;;;;;;;6.68;2.17;;;13.10;99.90;;;;;;5014882;28;20118;-90
2023/11/13 11:06:11;;;;;;;5.65;3.95;;;13.10;99.90;;;;;;5043040;28;20027;-90
2023/11/13 11:08:38;;;;;;;5.65;2.17;;;13.10;99.90;;;;;;5054876;28;20024;-89
2023/11/13 11:11:05;;;;;;;6.20;3.00;;;13.00;99.90;;;;;;5040181;28;20104;-90
2023/11/13 11:13:36;;;;;;;3.65;2.33;;;13.00;99.90;;;;;;5038041;28;20032;-92
2023/11/13 11:16:26;;;;;;;5.82;2.15;;;13.10;99.90;;;;;;5047069;28;20072;-91
2023/11/13 11:18:59;;;;;;;5.50;2.08;;;13.10;99.90;;;;;;5034809;28;20043;-89
2023/11/13 11:21:40;;;;;;;10.18;2.13;;;13.10;99.90;;;;;;5030791;28;20013;-90
2023/11/13 11:24:07;;;;;;;;;;;13.10;99.90;;;;;;5041027;28;20017;-90
2023/11/13 11:27:10;;;;;;;5.60;2.85;;;13.20;99.90;;;;;;5051827;28;19905;-90
2023/11/13 11:29:42;;;;;;;6.93;2.67;;;13.20;99.90;;;;;;5003273;28;20022;-91
2023/11/13 11:32:14;;;;;;;7.07;2.05;;;13.20;99.90;;;;;;5035973;28;20105;-90
2023/11/13 11:34:42;;;;;;;5.85;2.42;;;13.10;99.90;;;;;;5042825;28;20087;-91
2023/11/13 11:37:16;;;;;;;5.50;3.00;;;13.20;99.90;;;;;;5044428;28;20033;-89
2023/11/13 11:39:49;;;;;;;7.15;3.00;;;13.30;99.90;;;;;;5043607;28;20026;-91
2023/11/13 11:42:28;;;;;;;5.78;2.95;;;13.30;99.90;;;;;;5049568;28;20021;-92
2023/11/13 11:44:53;;;;;;;5.95;2.40;;;13.30;99.90;;;;;;5041172;28;20025;-91
2023/11/13 11:47:25;;;;;;;4.10;2.35;;;13.40;99.90;;;;;;5017315;28;20025;-89
2023/11/13 11:49:56;;;;;;;6.50;1.95;;;13.40;99.90;;;;;;5039673;28;20021;-91
2023/11/13 11:52:42;;;;;;;7.47;2.20;;;13.40;99.90;;;;;;5047238;28;20040;-90
2023/11/13 11:55:12;;;;;;;5.07;1.73;;;13.40;99.90;;;;;;5044263;28;20031;-91
2023/11/13 11:57:47;;;;;;;3.50;2.22;;;13.50;99.90;;;;;;5039617;28;20025;-91
2023/11/13 12:00:20;;;;;;;5.90;2.95;;;13.50;99.90;;;;;;5042511;28;20025;-91
2023/11/13 12:02:47;;;;;;;5.95;2.00;;;13.60;99.90;;;;;;5036087;28;20515;-90
2023/11/13 12:05:16;;;;;;;4.30;1.95;;;13.60;99.90;;;;;;5043953;28;20029;-90
2023/11/13 12:07:43;;;;;;;4.72;1.52;;;13.70;99.90;;;;;;5035728;28;20045;-91
2023/11/13 12:10:09;;;;;;;6.25;2.30;;;13.70;99.90;;;;;;5035244;28;20052;-90
2023/11/13 12:12:41;;;;;;;7.38;1.92;;;13.80;99.90;;;;;;5042682;28;20021;-90
2023/11/13 12:15:08;;;;;;;5.75;1.88;;;13.80;99.90;;;;;;5043084;28;20041;-91
2023/11/13 12:17:36;;;;;;;6.60;1.80;;;13.80;99.90;;;;;;5043310;28;20041;-88
2023/11/13 12:20:06;;;;;;;3.28;1.35;;;13.90;99.90;;;;;;5040508;28;20029;-91
2023/11/13 12:22:41;;;;;;;4.28;1.90;;;13.90;99.90;;;;;;5038595;28;20021;-91
2023/11/13 12:25:12;;;;;;;6.22;2.70;;;13.90;99.90;;;;;;5038262;28;20022;-90
2023/11/13 12:27:40;;;;;;;8.57;1.85;;;14.00;99.90;;;;;;5034775;28;20549;-91
2023/11/13 12:30:07;;;;;;;3.88;2.03;;;14.10;99.90;;;;;;5042015;28;20359;-90
2023/11/13 12:32:38;;;;;;;8.00;2.22;;;14.10;99.90;;;;;;5041104;28;20083;-91
2023/11/13 12:35:04;;;;;;;4.70;1.52;;;14.10;99.90;;;;;;5030994;28;20128;-91
2023/11/13 12:37:35;;;;;;;2.70;1.58;;;14.20;99.90;;;;;;5032026;28;20116;-92
2023/11/13 12:40:04;;;;;;;8.32;2.13;;;14.30;99.90;;;;;;5036600;28;20034;-92
2023/11/13 12:42:30;;;;;;;5.55;2.42;;;14.30;99.90;;;;;;5031483;28;20072;-92
2023/11/13 12:44:56;;;;;;;8.00;2.17;;;14.20;99.90;;;;;;5037349;28;20569;-90